createdAt,value
2023-02-09T00:00:31.143Z,-4.70
2023-02-09T00:01:31.177Z,-4.71
2023-02-09T00:02:31.160Z,-4.79
2023-02-09T00:03:31.186Z,-4.71
2023-02-09T00:04:31.092Z,-4.69
2023-02-09T00:05:31.251Z,-4.75
2023-02-09T00:06:31.074Z,-4.79
2023-02-09T00:07:31.066Z,-4.73
2023-02-09T00:08:31.068Z,-4.75
2023-02-09T00:09:31.075Z,-4.78
2023-02-09T00:10:31.037Z,-4.81
2023-02-09T00:11:31.065Z,-4.84
2023-02-09T00:12:31.032Z,-4.82
2023-02-09T00:13:31.001Z,-4.88
2023-02-09T00:14:30.995Z,-4.84
2023-02-09T00:15:30.990Z,-4.81
2023-02-09T00:16:31.175Z,-4.85
2023-02-09T00:17:31.038Z,-4.87
2023-02-09T00:18:30.943Z,-4.92
2023-02-09T00:19:33.175Z,-4.82
2023-02-09T00:20:30.922Z,-4.89
2023-02-09T00:21:30.924Z,-4.87
2023-02-09T00:22:30.906Z,-4.95
2023-02-09T00:23:30.968Z,-4.82
2023-02-09T00:24:30.885Z,-4.99
2023-02-09T00:25:30.870Z,-4.85
2023-02-09T00:26:30.864Z,-4.96
2023-02-09T00:27:30.865Z,-4.92
2023-02-09T00:28:30.913Z,-5.02
2023-02-09T00:29:30.863Z,-4.92
2023-02-09T00:30:30.870Z,-4.92
2023-02-09T00:31:30.902Z,-4.96
2023-02-09T00:32:30.810Z,-4.98
2023-02-09T00:33:30.828Z,-4.96
2023-02-09T00:34:30.776Z,-4.98
2023-02-09T00:35:30.812Z,-4.91
2023-02-09T00:36:30.751Z,-4.98
2023-02-09T00:37:30.742Z,-5.00
2023-02-09T00:38:30.726Z,-5.00
2023-02-09T00:39:30.735Z,-4.95
2023-02-09T00:40:30.714Z,-5.03
2023-02-09T00:41:30.738Z,-5.03
2023-02-09T00:42:30.692Z,-5.02
2023-02-09T00:43:30.680Z,-5.03
2023-02-09T00:44:30.660Z,-5.00
2023-02-09T00:45:30.772Z,-5.13
2023-02-09T00:46:30.653Z,-5.05
2023-02-09T00:47:30.731Z,-5.06
2023-02-09T00:48:30.637Z,-5.00
2023-02-09T00:49:30.656Z,-5.09
2023-02-09T00:50:30.612Z,-5.02
2023-02-09T00:51:30.632Z,-5.14
2023-02-09T00:52:30.572Z,-5.13
2023-02-09T00:53:30.603Z,-5.03
2023-02-09T00:54:30.565Z,-5.19
2023-02-09T00:55:30.557Z,-5.00
2023-02-09T00:56:30.551Z,-5.09
2023-02-09T00:57:30.521Z,-5.10
2023-02-09T00:58:30.522Z,-4.98
2023-02-09T00:59:30.546Z,-5.03
2023-02-09T01:00:30.500Z,-4.99
2023-02-09T01:01:30.494Z,-5.00
2023-02-09T01:02:30.467Z,-5.00
2023-02-09T01:03:30.518Z,-5.06
2023-02-09T01:04:30.580Z,-5.03
2023-02-09T01:05:30.575Z,-4.99
2023-02-09T01:06:30.420Z,-5.02
2023-02-09T01:07:30.425Z,-5.06
2023-02-09T01:08:30.404Z,-5.13
2023-02-09T01:09:30.431Z,-5.05
2023-02-09T01:10:30.384Z,-4.96
2023-02-09T01:11:30.411Z,-5.02
2023-02-09T01:12:30.366Z,-5.02
2023-02-09T01:13:30.444Z,-5.03
2023-02-09T01:14:30.342Z,-4.92
2023-02-09T01:15:30.413Z,-5.03
2023-02-09T01:16:30.399Z,-5.05
2023-02-09T01:17:30.353Z,-4.98
2023-02-09T01:18:30.292Z,-5.02
2023-02-09T01:19:30.300Z,-5.18
2023-02-09T01:20:30.294Z,-5.00
2023-02-09T01:21:30.300Z,-5.05
2023-02-09T01:22:30.252Z,-5.13
2023-02-09T01:23:30.315Z,-5.08
2023-02-09T01:24:30.234Z,-5.14
2023-02-09T01:25:30.273Z,-5.14
2023-02-09T01:26:30.232Z,-5.09
2023-02-09T01:27:30.199Z,-5.05
2023-02-09T01:28:30.267Z,-5.14
2023-02-09T01:29:30.205Z,-5.14
2023-02-09T01:30:30.174Z,-5.06
2023-02-09T01:31:30.358Z,-5.14
2023-02-09T01:32:30.142Z,-5.10
2023-02-09T01:33:30.128Z,-5.19
2023-02-09T01:34:30.115Z,-5.19
2023-02-09T01:35:32.187Z,-5.25
2023-02-09T01:36:30.102Z,-5.19
2023-02-09T01:37:30.135Z,-5.25
2023-02-09T01:38:30.077Z,-5.22
2023-02-09T01:39:30.080Z,-5.29
2023-02-09T01:40:30.056Z,-5.35
2023-02-09T01:41:30.106Z,-5.35
2023-02-09T01:42:30.033Z,-5.36
2023-02-09T01:43:30.105Z,-5.29
2023-02-09T01:44:30.009Z,-5.36
2023-02-09T01:45:30.007Z,-5.35
2023-02-09T01:46:30.099Z,-5.35
2023-02-09T01:47:30.079Z,-5.35
2023-02-09T01:48:29.965Z,-5.35
2023-02-09T01:49:29.961Z,-5.39
2023-02-09T01:50:29.960Z,-5.38
2023-02-09T01:51:29.944Z,-5.43
2023-02-09T01:52:29.954Z,-5.45
2023-02-09T01:53:29.961Z,-5.49
2023-02-09T01:54:29.918Z,-5.51
2023-02-09T01:55:29.895Z,-5.56
2023-02-09T01:56:29.938Z,-5.54
2023-02-09T01:57:29.880Z,-5.54
2023-02-09T01:58:29.903Z,-5.60
2023-02-09T01:59:29.945Z,-5.56
2023-02-09T02:00:29.856Z,-5.57
2023-02-09T02:01:29.889Z,-5.60
2023-02-09T02:02:29.878Z,-5.61
2023-02-09T02:03:29.816Z,-5.71
2023-02-09T02:04:29.798Z,-5.66
2023-02-09T02:05:29.851Z,-5.76
2023-02-09T02:06:29.792Z,-5.81
2023-02-09T02:07:29.765Z,-5.81
2023-02-09T02:08:29.763Z,-5.75
2023-02-09T02:09:29.772Z,-5.76
2023-02-09T02:10:29.746Z,-5.82
2023-02-09T02:11:29.786Z,-5.79
2023-02-09T02:12:29.715Z,-5.84
2023-02-09T02:13:29.828Z,-5.89
2023-02-09T02:14:29.693Z,-5.90
2023-02-09T02:15:29.724Z,-5.90
2023-02-09T02:16:29.665Z,-5.90
2023-02-09T02:17:29.691Z,-5.92
2023-02-09T02:18:29.654Z,-6.00
2023-02-09T02:19:29.663Z,-5.97
2023-02-09T02:20:29.628Z,-6.02
2023-02-09T02:21:29.608Z,-6.05
2023-02-09T02:22:29.600Z,-6.07
2023-02-09T02:23:29.623Z,-6.11
2023-02-09T02:24:29.578Z,-6.11
2023-02-09T02:25:29.597Z,-6.11
2023-02-09T02:26:29.584Z,-6.13
2023-02-09T02:27:29.557Z,-5.97
2023-02-09T02:28:29.609Z,-6.08
2023-02-09T02:29:29.581Z,-6.10
2023-02-09T02:30:29.583Z,-6.10
2023-02-09T02:31:29.660Z,-6.11
2023-02-09T02:32:29.496Z,-6.08
2023-02-09T02:33:29.485Z,-6.08
2023-02-09T02:34:29.474Z,-6.07
2023-02-09T02:35:29.608Z,-6.13
2023-02-09T02:36:29.453Z,-6.10
2023-02-09T02:37:29.472Z,-6.13
2023-02-09T02:38:29.428Z,-6.13
2023-02-09T02:39:29.441Z,-6.13
2023-02-09T02:40:29.413Z,-6.10
2023-02-09T02:41:29.578Z,-6.10
2023-02-09T02:42:29.386Z,-6.07
2023-02-09T02:43:29.393Z,-6.10
2023-02-09T02:44:29.370Z,-6.15
2023-02-09T02:45:29.356Z,-6.08
2023-02-09T02:46:29.429Z,-6.17
2023-02-09T02:47:29.405Z,-6.21
2023-02-09T02:48:29.330Z,-6.11
2023-02-09T02:49:29.319Z,-6.08
2023-02-09T02:50:29.416Z,-6.21
2023-02-09T02:51:29.298Z,-6.20
2023-02-09T02:52:29.290Z,-6.17
2023-02-09T02:53:29.305Z,-6.10
2023-02-09T02:54:29.262Z,-6.15
2023-02-09T02:55:29.257Z,-6.21
2023-02-09T02:56:29.239Z,-6.23
2023-02-09T02:57:29.256Z,-6.24
2023-02-09T02:58:29.240Z,-6.17
2023-02-09T02:59:29.263Z,-6.20
2023-02-09T03:00:29.205Z,-6.23
2023-02-09T03:01:29.261Z,-6.24
2023-02-09T03:02:29.175Z,-6.15
2023-02-09T03:03:29.171Z,-6.26
2023-02-09T03:04:29.164Z,-6.20
2023-02-09T03:05:29.243Z,-6.23
2023-02-09T03:06:29.136Z,-6.17
2023-02-09T03:07:29.143Z,-6.26
2023-02-09T03:08:29.127Z,-6.23
2023-02-09T03:09:29.103Z,-6.28
2023-02-09T03:10:29.095Z,-6.28
2023-02-09T03:11:29.096Z,-6.26
2023-02-09T03:12:29.073Z,-6.28
2023-02-09T03:13:29.100Z,-6.23
2023-02-09T03:14:29.047Z,-6.17
2023-02-09T03:15:29.044Z,-6.23
2023-02-09T03:16:29.136Z,-6.24
2023-02-09T03:17:29.046Z,-6.32
2023-02-09T03:18:29.013Z,-6.18
2023-02-09T03:19:29.045Z,-6.20
2023-02-09T03:20:28.991Z,-6.26
2023-02-09T03:21:28.978Z,-6.18
2023-02-09T03:22:28.969Z,-6.18
2023-02-09T03:23:28.998Z,-6.24
2023-02-09T03:24:28.949Z,-6.31
2023-02-09T03:25:28.962Z,-6.29
2023-02-09T03:26:28.927Z,-6.29
2023-02-09T03:27:28.928Z,-6.32
2023-02-09T03:28:28.986Z,-6.28
2023-02-09T03:29:28.979Z,-6.36
2023-02-09T03:30:28.908Z,-6.31
2023-02-09T03:31:29.059Z,-6.44
2023-02-09T03:32:28.864Z,-6.35
2023-02-09T03:33:28.889Z,-6.52
2023-02-09T03:34:28.840Z,-6.41
2023-02-09T03:35:28.864Z,-6.36
2023-02-09T03:36:28.819Z,-6.47
2023-02-09T03:37:28.811Z,-6.39
2023-02-09T03:38:28.801Z,-6.36
2023-02-09T03:39:28.792Z,-6.41
2023-02-09T03:40:28.803Z,-6.41
2023-02-09T03:41:28.785Z,-6.49
2023-02-09T03:42:28.754Z,-6.47
2023-02-09T03:43:28.737Z,-6.46
2023-02-09T03:44:28.743Z,-6.52
2023-02-09T03:45:28.802Z,-6.53
2023-02-09T03:46:28.768Z,-6.49
2023-02-09T03:47:28.710Z,-6.47
2023-02-09T03:48:28.719Z,-6.54
2023-02-09T03:49:28.676Z,-6.46
2023-02-09T03:50:28.667Z,-6.44
2023-02-09T03:51:28.659Z,-6.44
2023-02-09T03:52:28.652Z,-6.44
2023-02-09T03:53:28.683Z,-6.49
2023-02-09T03:54:28.621Z,-6.50
2023-02-09T03:55:28.612Z,-6.47
2023-02-09T03:56:28.602Z,-6.46
2023-02-09T03:57:28.590Z,-6.47
2023-02-09T03:58:28.608Z,-6.42
2023-02-09T03:59:28.678Z,-6.39
2023-02-09T04:00:28.639Z,-6.39
2023-02-09T04:01:28.570Z,-6.41
2023-02-09T04:02:28.583Z,-6.39
2023-02-09T04:03:28.524Z,-6.49
2023-02-09T04:04:28.515Z,-6.50
2023-02-09T04:05:28.563Z,-6.41
2023-02-09T04:06:28.492Z,-6.50
2023-02-09T04:07:28.475Z,-6.47
2023-02-09T04:08:28.471Z,-6.49
2023-02-09T04:09:28.551Z,-6.53
2023-02-09T04:10:28.469Z,-6.54
2023-02-09T04:11:28.479Z,-6.52
2023-02-09T04:12:28.427Z,-6.53
2023-02-09T04:13:28.420Z,-6.65
2023-02-09T04:14:28.409Z,-6.61
2023-02-09T04:15:28.410Z,-6.50
2023-02-09T04:16:28.540Z,-6.60
2023-02-09T04:17:28.508Z,-6.69
2023-02-09T04:18:28.358Z,-6.61
2023-02-09T04:19:28.359Z,-6.58
2023-02-09T04:20:28.339Z,-6.58
2023-02-09T04:21:28.332Z,-6.63
2023-02-09T04:22:28.322Z,-6.63
2023-02-09T04:23:28.360Z,-6.54
2023-02-09T04:24:28.298Z,-6.63
2023-02-09T04:25:28.284Z,-6.65
2023-02-09T04:26:28.281Z,-6.60
2023-02-09T04:27:28.329Z,-6.68
2023-02-09T04:28:28.292Z,-6.61
2023-02-09T04:29:28.297Z,-6.68
2023-02-09T04:30:28.376Z,-6.69
2023-02-09T04:31:28.357Z,-6.71
2023-02-09T04:32:28.216Z,-6.65
2023-02-09T04:33:28.226Z,-6.66
2023-02-09T04:34:28.338Z,-6.61
2023-02-09T04:35:28.233Z,-6.76
2023-02-09T04:36:28.177Z,-6.69
2023-02-09T04:37:28.165Z,-6.74
2023-02-09T04:38:28.149Z,-6.74
2023-02-09T04:39:28.147Z,-6.74
2023-02-09T04:40:28.126Z,-6.72
2023-02-09T04:41:28.136Z,-6.74
2023-02-09T04:42:28.106Z,-6.87
2023-02-09T04:43:28.099Z,-6.76
2023-02-09T04:44:28.102Z,-6.79
2023-02-09T04:45:28.108Z,-6.86
2023-02-09T04:46:28.068Z,-6.89
2023-02-09T04:47:28.149Z,-6.86
2023-02-09T04:48:28.044Z,-6.89
2023-02-09T04:49:28.066Z,-6.89
2023-02-09T04:50:28.025Z,-6.97
2023-02-09T04:51:28.043Z,-7.03
2023-02-09T04:52:28.004Z,-6.96
2023-02-09T04:53:28.047Z,-7.03
2023-02-09T04:54:28.000Z,-6.97
2023-02-09T04:55:27.971Z,-7.05
2023-02-09T04:56:27.959Z,-7.03
2023-02-09T04:57:27.952Z,-6.99
2023-02-09T04:58:27.959Z,-6.96
2023-02-09T04:59:28.013Z,-6.96
2023-02-09T05:00:27.919Z,-7.08
2023-02-09T05:01:27.955Z,-7.05
2023-02-09T05:02:27.893Z,-7.08
2023-02-09T05:03:27.902Z,-7.05
2023-02-09T05:04:27.875Z,-7.04
2023-02-09T05:05:27.900Z,-6.99
2023-02-09T05:06:27.886Z,-7.03
2023-02-09T05:07:27.847Z,-7.03
2023-02-09T05:08:27.836Z,-7.00
2023-02-09T05:09:27.823Z,-6.89
2023-02-09T05:10:27.805Z,-6.94
2023-02-09T05:11:27.870Z,-6.96
2023-02-09T05:12:27.794Z,-6.97
2023-02-09T05:13:27.848Z,-6.89
2023-02-09T05:14:27.808Z,-6.93
2023-02-09T05:15:27.781Z,-6.94
2023-02-09T05:16:27.882Z,-6.96
2023-02-09T05:17:27.836Z,-6.99
2023-02-09T05:18:27.728Z,-6.96
2023-02-09T05:19:27.721Z,-7.07
2023-02-09T05:20:27.704Z,-7.07
2023-02-09T05:21:27.754Z,-7.04
2023-02-09T05:22:27.684Z,-7.05
2023-02-09T05:23:27.764Z,-7.00
2023-02-09T05:24:27.660Z,-7.11
2023-02-09T05:25:27.687Z,-7.08
2023-02-09T05:26:27.668Z,-7.14
2023-02-09T05:27:27.636Z,-7.17
2023-02-09T05:28:27.721Z,-7.10
2023-02-09T05:29:27.644Z,-7.14
2023-02-09T05:30:27.603Z,-7.15
2023-02-09T05:31:27.753Z,-7.10
2023-02-09T05:32:27.636Z,-7.11
2023-02-09T05:33:27.586Z,-7.15
2023-02-09T05:34:27.560Z,-7.22
2023-02-09T05:35:27.630Z,-7.08
2023-02-09T05:36:27.542Z,-7.15
2023-02-09T05:37:27.556Z,-7.18
2023-02-09T05:38:27.513Z,-7.08
2023-02-09T05:39:27.503Z,-7.08
2023-02-09T05:40:27.489Z,-7.17
2023-02-09T05:41:27.565Z,-7.15
2023-02-09T05:42:27.503Z,-7.14
2023-02-09T05:43:27.456Z,-7.17
2023-02-09T05:44:27.454Z,-7.17
2023-02-09T05:45:27.441Z,-7.25
2023-02-09T05:46:27.513Z,-7.23
2023-02-09T05:47:27.455Z,-7.15
2023-02-09T05:48:27.423Z,-7.25
2023-02-09T05:49:27.405Z,-7.22
2023-02-09T05:50:27.406Z,-7.15
2023-02-09T05:51:27.377Z,-7.18
2023-02-09T05:52:27.366Z,-7.18
2023-02-09T05:53:27.423Z,-7.29
2023-02-09T05:54:27.344Z,-7.17
2023-02-09T05:55:27.331Z,-7.26
2023-02-09T05:56:27.331Z,-7.18
2023-02-09T05:57:27.310Z,-7.43
2023-02-09T05:58:27.303Z,-7.29
2023-02-09T05:59:27.322Z,-7.29
2023-02-09T06:00:27.268Z,-7.38
2023-02-09T06:01:27.261Z,-7.29
2023-02-09T06:02:27.314Z,-7.29
2023-02-09T06:03:27.306Z,-7.33
2023-02-09T06:04:27.227Z,-7.31
2023-02-09T06:05:27.275Z,-7.33
2023-02-09T06:06:27.207Z,-7.32
2023-02-09T06:07:27.195Z,-7.32
2023-02-09T06:08:27.254Z,-7.33
2023-02-09T06:09:27.197Z,-7.35
2023-02-09T06:10:27.172Z,-7.35
2023-02-09T06:11:27.188Z,-7.36
2023-02-09T06:12:27.163Z,-7.31
2023-02-09T06:13:27.135Z,-7.32
2023-02-09T06:14:27.195Z,-7.33
2023-02-09T06:15:27.143Z,-7.29
2023-02-09T06:16:27.105Z,-7.35
2023-02-09T06:17:27.150Z,-7.31
2023-02-09T06:18:27.081Z,-7.29
2023-02-09T06:19:27.092Z,-7.28
2023-02-09T06:20:27.095Z,-7.25
2023-02-09T06:21:27.049Z,-7.26
2023-02-09T06:22:27.036Z,-7.22
2023-02-09T06:23:27.061Z,-7.22
2023-02-09T06:24:27.080Z,-7.17
2023-02-09T06:25:27.040Z,-7.22
2023-02-09T06:26:26.990Z,-7.08
2023-02-09T06:27:27.039Z,-7.10
2023-02-09T06:28:27.008Z,-7.17
2023-02-09T06:29:26.994Z,-7.11
2023-02-09T06:30:26.960Z,-7.14
2023-02-09T06:31:27.115Z,-7.10
2023-02-09T06:32:26.943Z,-7.04
2023-02-09T06:33:26.912Z,-7.05
2023-02-09T06:34:27.009Z,-6.99
2023-02-09T06:35:26.980Z,-6.86
2023-02-09T06:36:26.903Z,-6.84
2023-02-09T06:37:26.888Z,-6.84
2023-02-09T06:38:26.866Z,-6.79
2023-02-09T06:39:26.929Z,-6.71
2023-02-09T06:40:26.851Z,-6.66
2023-02-09T06:41:26.907Z,-6.68
2023-02-09T06:42:29.035Z,-6.60
2023-02-09T06:43:26.896Z,-6.65
2023-02-09T06:44:26.806Z,-6.68
2023-02-09T06:45:26.790Z,-6.60
2023-02-09T06:46:26.916Z,-6.49
2023-02-09T06:47:26.790Z,-6.54
2023-02-09T06:48:26.759Z,-6.53
2023-02-09T06:49:27.354Z,-6.34
2023-02-09T06:50:26.854Z,-6.35
2023-02-09T06:51:26.740Z,-6.23
2023-02-09T06:52:26.769Z,-6.20
2023-02-09T06:53:26.801Z,-6.21
2023-02-09T06:54:26.716Z,-6.17
2023-02-09T06:55:26.710Z,-6.15
2023-02-09T06:56:26.688Z,-6.17
2023-02-09T06:57:26.828Z,-6.08
2023-02-09T06:58:26.683Z,-6.07
2023-02-09T06:59:26.700Z,-6.07
2023-02-09T07:00:26.634Z,-6.02
2023-02-09T07:01:26.675Z,-6.08
2023-02-09T07:02:26.677Z,-5.97
2023-02-09T07:03:26.669Z,-5.96
2023-02-09T07:04:26.590Z,-5.78
2023-02-09T07:05:26.614Z,-5.76
2023-02-09T07:06:26.586Z,-5.81
2023-02-09T07:07:26.596Z,-5.79
2023-02-09T07:08:26.547Z,-5.75
2023-02-09T07:09:26.564Z,-5.72
2023-02-09T07:10:26.543Z,-5.78
2023-02-09T07:11:26.606Z,-5.60
2023-02-09T07:12:26.659Z,-5.60
2023-02-09T07:13:26.520Z,-5.63
2023-02-09T07:14:26.557Z,-5.58
2023-02-09T07:15:26.478Z,-5.57
2023-02-09T07:16:26.538Z,-5.54
2023-02-09T07:17:26.554Z,-5.58
2023-02-09T07:18:26.480Z,-5.47
2023-02-09T07:19:26.450Z,-5.57
2023-02-09T07:20:26.418Z,-5.42
2023-02-09T07:21:26.420Z,-5.40
2023-02-09T07:22:26.438Z,-5.38
2023-02-09T07:23:26.464Z,-5.40
2023-02-09T07:24:26.457Z,-5.46
2023-02-09T07:25:27.383Z,-5.42
2023-02-09T07:26:26.352Z,-5.43
2023-02-09T07:27:26.364Z,-5.33
2023-02-09T07:28:26.455Z,-5.29
2023-02-09T07:29:26.378Z,-5.28
2023-02-09T07:30:26.311Z,-5.33
2023-02-09T07:31:27.528Z,-5.25
2023-02-09T07:32:26.296Z,-5.28
2023-02-09T07:33:26.280Z,-5.18
2023-02-09T07:34:26.280Z,-5.13
2023-02-09T07:35:26.878Z,-5.10
2023-02-09T07:36:26.245Z,-5.09
2023-02-09T07:37:26.249Z,-5.03
2023-02-09T07:38:26.237Z,-4.99
2023-02-09T07:39:26.206Z,-4.99
2023-02-09T07:40:26.201Z,-4.98
2023-02-09T07:41:26.238Z,-4.85
2023-02-09T07:42:26.175Z,-4.84
2023-02-09T07:43:26.169Z,-4.82
2023-02-09T07:44:26.149Z,-4.77
2023-02-09T07:45:26.190Z,-4.81
2023-02-09T07:46:26.173Z,-4.71
2023-02-09T07:47:26.366Z,-4.67
2023-02-09T07:48:26.111Z,-4.63
2023-02-09T07:49:26.123Z,-4.66
2023-02-09T07:50:26.092Z,-4.48
2023-02-09T07:51:26.118Z,-4.43
2023-02-09T07:52:26.102Z,-4.46
2023-02-09T07:53:26.106Z,-4.41
2023-02-09T07:54:26.047Z,-4.35
2023-02-09T07:55:26.032Z,-4.31
2023-02-09T07:56:26.028Z,-4.25
2023-02-09T07:57:26.039Z,-4.21
2023-02-09T07:58:26.003Z,-4.14
2023-02-09T07:59:26.042Z,-4.14
2023-02-09T08:00:25.977Z,-4.12
2023-02-09T08:01:26.023Z,-3.98
2023-02-09T08:02:25.978Z,-3.96
2023-02-09T08:03:25.946Z,-3.96
2023-02-09T08:04:25.935Z,-3.86
2023-02-09T08:05:26.023Z,-3.85
2023-02-09T08:06:36.236Z,-3.80
2023-02-09T08:07:26.930Z,-3.72
2023-02-09T08:08:25.926Z,-3.74
2023-02-09T08:09:25.882Z,-3.74
2023-02-09T08:10:26.051Z,-3.70
2023-02-09T08:11:25.902Z,-3.66
2023-02-09T08:12:25.906Z,-3.58
2023-02-09T08:13:25.838Z,-3.52
2023-02-09T08:14:25.866Z,-3.52
2023-02-09T08:15:25.824Z,-3.35
2023-02-09T08:16:25.886Z,-3.44
2023-02-09T08:17:25.938Z,-3.33
2023-02-09T08:18:25.838Z,-3.33
2023-02-09T08:19:25.768Z,-3.31
2023-02-09T08:20:25.774Z,-3.30
2023-02-09T08:21:26.376Z,-3.30
2023-02-09T08:22:25.740Z,-3.22
2023-02-09T08:23:25.864Z,-3.20
2023-02-09T08:24:25.845Z,-3.20
2023-02-09T08:25:25.723Z,-3.19
2023-02-09T08:26:25.692Z,-3.17
2023-02-09T08:27:25.712Z,-3.12
2023-02-09T08:28:41.626Z,-3.09
2023-02-09T08:29:26.777Z,-3.07
2023-02-09T08:30:26.656Z,-3.01
2023-02-09T08:31:25.770Z,-3.01
2023-02-09T08:32:25.661Z,-2.97
2023-02-09T08:33:25.647Z,-3.01
2023-02-09T08:34:25.615Z,-2.95
2023-02-09T08:35:25.763Z,-2.89
2023-02-09T08:36:25.836Z,-2.83
2023-02-09T08:37:25.582Z,-2.77
2023-02-09T08:38:25.629Z,-2.63
2023-02-09T08:39:25.571Z,-2.58
2023-02-09T08:40:25.639Z,-2.69
2023-02-09T08:41:25.695Z,-2.58
2023-02-09T08:42:25.542Z,-2.41
2023-02-09T08:43:32.503Z,-2.34
2023-02-09T08:44:25.521Z,-2.23
2023-02-09T08:45:25.641Z,-2.26
2023-02-09T08:46:25.696Z,-2.23
2023-02-09T08:47:25.528Z,-2.15
2023-02-09T08:48:25.476Z,-2.04
2023-02-09T08:49:33.486Z,-2.00
2023-02-09T08:50:25.462Z,-1.98
2023-02-09T08:51:25.443Z,-1.95
2023-02-09T08:52:25.422Z,-1.90
2023-02-09T08:53:25.430Z,-1.84
2023-02-09T08:54:25.433Z,-1.79
2023-02-09T08:55:25.412Z,-1.76
2023-02-09T08:56:25.399Z,-1.77
2023-02-09T08:57:34.884Z,-1.74
2023-02-09T08:58:26.421Z,-1.61
2023-02-09T08:59:25.345Z,-1.59
2023-02-09T09:00:25.361Z,-1.48
2023-02-09T09:01:25.410Z,-1.51
2023-02-09T09:02:25.315Z,-1.44
2023-02-09T09:03:25.340Z,-1.32
2023-02-09T09:04:25.323Z,-1.41
2023-02-09T09:05:26.298Z,-1.26
2023-02-09T09:06:25.288Z,-1.22
2023-02-09T09:07:25.249Z,-1.20
2023-02-09T09:08:25.243Z,-1.11
2023-02-09T09:09:25.236Z,-1.05
2023-02-09T09:10:25.412Z,-1.12
2023-02-09T09:11:25.951Z,-1.05
2023-02-09T09:12:25.938Z,-0.94
2023-02-09T09:13:25.206Z,-0.91
2023-02-09T09:14:25.174Z,-0.77
2023-02-09T09:15:25.167Z,-0.72
2023-02-09T09:16:25.611Z,-0.65
2023-02-09T09:17:25.146Z,-0.75
2023-02-09T09:18:25.956Z,-0.70
2023-02-09T09:19:25.161Z,-0.57
2023-02-09T09:20:25.124Z,-0.59
2023-02-09T09:21:25.144Z,-0.49
2023-02-09T09:22:25.152Z,-0.43
2023-02-09T09:23:25.090Z,-0.36
2023-02-09T09:24:25.973Z,-0.34
2023-02-09T09:25:25.067Z,-0.29
2023-02-09T09:26:25.052Z,-0.23
2023-02-09T09:27:26.962Z,-0.15
2023-02-09T09:28:25.088Z,-0.13
2023-02-09T09:29:25.014Z,-0.18
2023-02-09T09:30:25.003Z,-0.10
2023-02-09T09:31:25.191Z,-0.07
2023-02-09T09:32:25.255Z,0.03
2023-02-09T09:33:24.968Z,0.07
2023-02-09T09:34:25.021Z,0.07
2023-02-09T09:35:24.954Z,0.16
2023-02-09T09:36:24.961Z,0.23
2023-02-09T09:37:25.028Z,0.26
2023-02-09T09:38:24.911Z,0.22
2023-02-09T09:39:24.927Z,0.36
2023-02-09T09:40:24.934Z,0.43
2023-02-09T09:41:24.935Z,0.44
2023-02-09T09:42:24.874Z,0.58
2023-02-09T09:43:24.982Z,0.49
2023-02-09T09:44:24.851Z,0.66
2023-02-09T09:45:24.838Z,0.55
2023-02-09T09:46:25.014Z,0.68
2023-02-09T09:47:24.818Z,0.65
2023-02-09T09:48:24.866Z,0.77
2023-02-09T09:49:24.867Z,0.77
2023-02-09T09:50:26.307Z,0.77
2023-02-09T09:51:24.767Z,0.91
2023-02-09T09:52:24.908Z,0.84
2023-02-09T09:53:24.797Z,0.84
2023-02-09T09:54:24.773Z,0.86
2023-02-09T09:55:24.751Z,0.88
2023-02-09T09:56:27.057Z,0.87
2023-02-09T09:57:24.714Z,0.92
2023-02-09T09:58:25.068Z,1.02
2023-02-09T09:59:24.677Z,0.99
2023-02-09T10:00:24.664Z,1.01
2023-02-09T10:01:24.712Z,1.04
2023-02-09T10:02:24.674Z,1.05
2023-02-09T10:03:24.696Z,1.12
2023-02-09T10:04:24.715Z,1.14
2023-02-09T10:05:24.647Z,1.08
2023-02-09T10:06:24.655Z,1.08
2023-02-09T10:07:24.593Z,1.05
2023-02-09T10:08:24.608Z,1.12
2023-02-09T10:09:24.633Z,1.10
2023-02-09T10:10:24.633Z,1.02
2023-02-09T10:11:24.548Z,1.08
2023-02-09T10:12:24.538Z,1.10
2023-02-09T10:13:24.526Z,1.16
2023-02-09T10:14:24.513Z,1.24
2023-02-09T10:15:24.569Z,1.22
2023-02-09T10:16:24.539Z,1.28
2023-02-09T10:17:24.484Z,1.30
2023-02-09T10:18:24.471Z,1.34
2023-02-09T10:19:24.458Z,1.40
2023-02-09T10:20:24.488Z,1.41
2023-02-09T10:21:25.474Z,1.45
2023-02-09T10:22:24.429Z,1.52
2023-02-09T10:23:24.433Z,1.53
2023-02-09T10:24:24.425Z,1.58
2023-02-09T10:25:24.420Z,1.66
2023-02-09T10:26:24.381Z,1.63
2023-02-09T10:27:24.429Z,1.68
2023-02-09T10:28:24.483Z,1.78
2023-02-09T10:29:24.354Z,1.87
2023-02-09T10:30:24.342Z,1.85
2023-02-09T10:31:24.452Z,1.92
2023-02-09T10:32:24.321Z,1.87
2023-02-09T10:33:24.428Z,1.92
2023-02-09T10:34:24.313Z,1.94
2023-02-09T10:35:24.285Z,2.07
2023-02-09T10:36:24.278Z,2.00
2023-02-09T10:37:24.288Z,2.14
2023-02-09T10:38:24.247Z,2.17
2023-02-09T10:39:24.291Z,2.17
2023-02-09T10:40:24.948Z,2.20
2023-02-09T10:41:24.246Z,2.32
2023-02-09T10:42:24.403Z,2.28
2023-02-09T10:43:24.190Z,2.29
2023-02-09T10:44:24.260Z,2.36
2023-02-09T10:45:24.229Z,2.42
2023-02-09T10:46:24.371Z,2.42
2023-02-09T10:47:24.151Z,2.51
2023-02-09T10:48:24.134Z,2.54
2023-02-09T10:49:24.181Z,2.43
2023-02-09T10:50:24.118Z,2.60
2023-02-09T10:51:24.142Z,2.60
2023-02-09T10:52:24.104Z,2.65
2023-02-09T10:53:24.092Z,2.67
2023-02-09T10:54:24.074Z,2.62
2023-02-09T10:55:24.075Z,2.65
2023-02-09T10:56:24.125Z,2.71
2023-02-09T10:57:24.178Z,2.72
2023-02-09T10:58:24.027Z,2.89
2023-02-09T10:59:24.097Z,2.80
2023-02-09T11:00:24.005Z,2.86
2023-02-09T11:01:24.097Z,2.85
2023-02-09T11:02:24.013Z,2.87
2023-02-09T11:03:24.134Z,2.98
2023-02-09T11:04:24.044Z,3.03
2023-02-09T11:05:23.984Z,2.98
2023-02-09T11:06:23.946Z,2.97
2023-02-09T11:07:23.939Z,3.00
2023-02-09T11:08:23.925Z,3.01
2023-02-09T11:09:24.040Z,2.98
2023-02-09T11:10:23.927Z,3.10
2023-02-09T11:11:23.890Z,3.04
2023-02-09T11:12:24.458Z,3.04
2023-02-09T11:13:23.888Z,3.07
2023-02-09T11:14:23.856Z,3.05
2023-02-09T11:15:23.887Z,3.11
2023-02-09T11:16:23.897Z,3.08
2023-02-09T11:17:23.815Z,3.13
2023-02-09T11:18:23.832Z,3.18
2023-02-09T11:19:23.796Z,3.19
2023-02-09T11:20:23.786Z,3.21
2023-02-09T11:21:23.838Z,3.18
2023-02-09T11:22:28.984Z,3.16
2023-02-09T11:23:24.791Z,3.26
2023-02-09T11:24:26.194Z,3.23
2023-02-09T11:25:23.752Z,3.21
2023-02-09T11:26:23.728Z,3.28
2023-02-09T11:27:23.930Z,3.31
2023-02-09T11:28:23.724Z,3.25
2023-02-09T11:29:23.726Z,3.23
2023-02-09T11:30:23.780Z,3.22
2023-02-09T11:31:23.870Z,3.28
2023-02-09T11:32:23.654Z,3.29
2023-02-09T11:33:23.653Z,3.32
2023-02-09T11:34:26.179Z,3.34
2023-02-09T11:35:23.623Z,3.36
2023-02-09T11:36:23.621Z,3.42
2023-02-09T11:37:23.623Z,3.40
2023-02-09T11:38:23.623Z,3.41
2023-02-09T11:39:23.906Z,3.37
2023-02-09T11:40:23.572Z,3.45
2023-02-09T11:41:23.564Z,3.50
2023-02-09T11:42:23.542Z,3.45
2023-02-09T11:43:23.572Z,3.45
2023-02-09T11:44:23.529Z,3.45
2023-02-09T11:45:23.701Z,3.58
2023-02-09T11:46:23.566Z,3.47
2023-02-09T11:47:23.496Z,3.45
2023-02-09T11:48:23.501Z,3.48
2023-02-09T11:49:23.466Z,3.62
2023-02-09T11:50:23.452Z,3.59
2023-02-09T11:51:23.514Z,3.62
2023-02-09T11:52:23.512Z,3.60
2023-02-09T11:53:23.424Z,3.68
2023-02-09T11:54:23.484Z,3.68
2023-02-09T11:55:23.403Z,3.62
2023-02-09T11:56:23.549Z,3.74
2023-02-09T11:57:23.451Z,3.84
2023-02-09T11:58:23.368Z,3.91
2023-02-09T11:59:23.354Z,3.83
2023-02-09T12:00:23.338Z,3.96
2023-02-09T12:01:23.377Z,4.01
2023-02-09T12:02:23.878Z,4.01
2023-02-09T12:03:23.342Z,4.10
2023-02-09T12:04:23.296Z,4.06
2023-02-09T12:05:23.378Z,4.05
2023-02-09T12:06:23.401Z,4.14
2023-02-09T12:07:23.349Z,4.22
2023-02-09T12:08:23.314Z,4.28
2023-02-09T12:09:23.313Z,4.38
2023-02-09T12:10:23.288Z,4.37
2023-02-09T12:11:23.221Z,4.45
2023-02-09T12:12:23.330Z,4.38
2023-02-09T12:13:23.195Z,4.44
2023-02-09T12:14:23.192Z,4.45
2023-02-09T12:15:23.322Z,4.60
2023-02-09T12:16:23.267Z,4.70
2023-02-09T12:17:23.181Z,4.67
2023-02-09T12:18:23.140Z,4.68
2023-02-09T12:19:23.129Z,4.75
2023-02-09T12:20:23.132Z,4.78
2023-02-09T12:21:23.138Z,4.84
2023-02-09T12:22:23.120Z,4.84
2023-02-09T12:23:23.081Z,4.89
2023-02-09T12:24:23.073Z,4.86
2023-02-09T12:25:23.067Z,4.96
2023-02-09T12:26:23.051Z,4.87
2023-02-09T12:27:23.052Z,4.90
2023-02-09T12:28:23.195Z,5.02
2023-02-09T12:29:23.010Z,4.97
2023-02-09T12:30:22.998Z,4.97
2023-02-09T12:31:23.067Z,5.02
2023-02-09T12:32:23.057Z,4.93
2023-02-09T12:33:23.056Z,5.08
2023-02-09T12:34:22.951Z,5.08
2023-02-09T12:35:22.963Z,5.08
2023-02-09T12:36:22.943Z,5.04
2023-02-09T12:37:29.574Z,4.96
2023-02-09T12:38:24.266Z,5.04
2023-02-09T12:39:24.180Z,5.04
2023-02-09T12:40:22.897Z,5.04
2023-02-09T12:41:22.874Z,5.04
2023-02-09T12:42:22.869Z,5.05
2023-02-09T12:43:22.865Z,5.04
2023-02-09T12:44:22.886Z,5.10
2023-02-09T12:45:22.837Z,4.96
2023-02-09T12:46:23.017Z,5.11
2023-02-09T12:47:22.811Z,5.14
2023-02-09T12:48:22.817Z,5.08
2023-02-09T12:49:22.812Z,4.99
2023-02-09T12:50:22.792Z,5.05
2023-02-09T12:51:22.773Z,5.02
2023-02-09T12:52:22.755Z,5.02
2023-02-09T12:53:22.764Z,5.10
2023-02-09T12:54:22.735Z,5.02
2023-02-09T12:55:22.722Z,5.05
2023-02-09T12:56:22.738Z,5.07
2023-02-09T12:57:22.702Z,5.02
2023-02-09T12:58:22.686Z,5.10
2023-02-09T12:59:22.682Z,5.00